sensor_id;sensor_type;location;lat;lon;timestamp;P1;durP1;ratioP1;P2;durP2;ratioP2
6306;SDS011;3186;54.062;9.962;2023-08-24T00:02:06;4.43;;;1.90;;
6306;SDS011;3186;54.062;9.962;2023-08-24T00:04:32;3.93;;;2.10;;
6306;SDS011;3186;54.062;9.962;2023-08-24T00:06:59;3.43;;;1.70;;
6306;SDS011;3186;54.062;9.962;2023-08-24T00:09:25;4.97;;;1.93;;
6306;SDS011;3186;54.062;9.962;2023-08-24T00:11:51;7.80;;;2.10;;
6306;SDS011;3186;54.062;9.962;2023-08-24T00:14:18;2.73;;;1.90;;
6306;SDS011;3186;54.062;9.962;2023-08-24T00:16:44;2.70;;;2.00;;
6306;SDS011;3186;54.062;9.962;2023-08-24T00:19:10;3.67;;;2.13;;
6306;SDS011;3186;54.062;9.962;2023-08-24T00:21:36;4.87;;;2.10;;
6306;SDS011;3186;54.062;9.962;2023-08-24T00:24:02;2.83;;;2.07;;
6306;SDS011;3186;54.062;9.962;2023-08-24T00:26:28;3.67;;;2.00;;
6306;SDS011;3186;54.062;9.962;2023-08-24T00:28:54;4.23;;;1.83;;
6306;SDS011;3186;54.062;9.962;2023-08-24T00:31:20;3.67;;;2.37;;
6306;SDS011;3186;54.062;9.962;2023-08-24T00:33:47;3.17;;;2.03;;
6306;SDS011;3186;54.062;9.962;2023-08-24T00:36:15;3.33;;;1.87;;
6306;SDS011;3186;54.062;9.962;2023-08-24T00:38:43;4.23;;;2.10;;
6306;SDS011;3186;54.062;9.962;2023-08-24T00:41:09;3.50;;;2.17;;
6306;SDS011;3186;54.062;9.962;2023-08-24T00:43:35;4.43;;;2.00;;
6306;SDS011;3186;54.062;9.962;2023-08-24T00:46:01;5.33;;;2.13;;
6306;SDS011;3186;54.062;9.962;2023-08-24T00:48:29;2.13;;;1.93;;
6306;SDS011;3186;54.062;9.962;2023-08-24T00:50:57;4.73;;;1.87;;
6306;SDS011;3186;54.062;9.962;2023-08-24T00:53:25;3.30;;;1.87;;
6306;SDS011;3186;54.062;9.962;2023-08-24T00:55:53;6.37;;;2.40;;
6306;SDS011;3186;54.062;9.962;2023-08-24T00:58:19;6.17;;;2.40;;
6306;SDS011;3186;54.062;9.962;2023-08-24T01:00:46;3.53;;;2.33;;
6306;SDS011;3186;54.062;9.962;2023-08-24T01:03:14;4.77;;;2.13;;
6306;SDS011;3186;54.062;9.962;2023-08-24T01:05:43;2.80;;;2.20;;
6306;SDS011;3186;54.062;9.962;2023-08-24T01:08:09;3.87;;;2.10;;
6306;SDS011;3186;54.062;9.962;2023-08-24T01:10:38;3.83;;;2.17;;
6306;SDS011;3186;54.062;9.962;2023-08-24T01:13:12;4.80;;;1.93;;
6306;SDS011;3186;54.062;9.962;2023-08-24T01:18:16;3.53;;;2.10;;
6306;SDS011;3186;54.062;9.962;2023-08-24T01:20:44;3.40;;;2.07;;
6306;SDS011;3186;54.062;9.962;2023-08-24T01:23:27;3.60;;;2.20;;
6306;SDS011;3186;54.062;9.962;2023-08-24T01:26:05;2.73;;;2.10;;
6306;SDS011;3186;54.062;9.962;2023-08-24T01:28:36;3.80;;;1.93;;
6306;SDS011;3186;54.062;9.962;2023-08-24T01:31:05;2.67;;;2.00;;
6306;SDS011;3186;54.062;9.962;2023-08-24T01:33:33;2.80;;;1.87;;
6306;SDS011;3186;54.062;9.962;2023-08-24T01:35:59;2.30;;;2.03;;
6306;SDS011;3186;54.062;9.962;2023-08-24T01:38:26;2.90;;;2.10;;
6306;SDS011;3186;54.062;9.962;2023-08-24T01:41:05;4.60;;;2.40;;
6306;SDS011;3186;54.062;9.962;2023-08-24T01:43:36;4.83;;;1.87;;
6306;SDS011;3186;54.062;9.962;2023-08-24T01:46:05;3.17;;;1.90;;
6306;SDS011;3186;54.062;9.962;2023-08-24T01:48:32;2.60;;;1.80;;
6306;SDS011;3186;54.062;9.962;2023-08-24T01:51:00;4.43;;;1.93;;
6306;SDS011;3186;54.062;9.962;2023-08-24T01:53:28;2.63;;;1.87;;
6306;SDS011;3186;54.062;9.962;2023-08-24T01:55:55;3.40;;;1.80;;
6306;SDS011;3186;54.062;9.962;2023-08-24T01:58:22;3.43;;;2.00;;
6306;SDS011;3186;54.062;9.962;2023-08-24T02:00:48;3.53;;;1.97;;
6306;SDS011;3186;54.062;9.962;2023-08-24T02:03:14;2.23;;;1.90;;
6306;SDS011;3186;54.062;9.962;2023-08-24T02:05:39;4.57;;;2.10;;
6306;SDS011;3186;54.062;9.962;2023-08-24T02:08:06;4.50;;;1.90;;
6306;SDS011;3186;54.062;9.962;2023-08-24T02:10:32;3.43;;;1.97;;
6306;SDS011;3186;54.062;9.962;2023-08-24T02:12:58;2.27;;;2.00;;
6306;SDS011;3186;54.062;9.962;2023-08-24T02:15:24;6.37;;;2.03;;
6306;SDS011;3186;54.062;9.962;2023-08-24T02:17:50;5.63;;;1.80;;
6306;SDS011;3186;54.062;9.962;2023-08-24T02:20:15;3.67;;;2.10;;
6306;SDS011;3186;54.062;9.962;2023-08-24T02:22:42;2.70;;;2.30;;
6306;SDS011;3186;54.062;9.962;2023-08-24T02:25:09;2.87;;;1.97;;
6306;SDS011;3186;54.062;9.962;2023-08-24T02:27:35;6.60;;;2.53;;
6306;SDS011;3186;54.062;9.962;2023-08-24T02:30:01;5.17;;;2.50;;
6306;SDS011;3186;54.062;9.962;2023-08-24T02:32:28;2.70;;;2.37;;
6306;SDS011;3186;54.062;9.962;2023-08-24T02:34:53;2.80;;;2.50;;
6306;SDS011;3186;54.062;9.962;2023-08-24T02:37:19;3.50;;;2.70;;
6306;SDS011;3186;54.062;9.962;2023-08-24T02:39:45;4.63;;;2.60;;
6306;SDS011;3186;54.062;9.962;2023-08-24T02:42:11;5.23;;;3.23;;
6306;SDS011;3186;54.062;9.962;2023-08-24T02:44:37;3.03;;;2.73;;
6306;SDS011;3186;54.062;9.962;2023-08-24T02:47:02;5.00;;;3.10;;
6306;SDS011;3186;54.062;9.962;2023-08-24T02:49:29;4.77;;;2.77;;
6306;SDS011;3186;54.062;9.962;2023-08-24T02:51:55;4.30;;;2.70;;
6306;SDS011;3186;54.062;9.962;2023-08-24T02:54:21;3.87;;;2.83;;
6306;SDS011;3186;54.062;9.962;2023-08-24T02:56:48;5.20;;;2.73;;
6306;SDS011;3186;54.062;9.962;2023-08-24T02:59:13;8.47;;;2.93;;
6306;SDS011;3186;54.062;9.962;2023-08-24T03:01:39;3.57;;;2.47;;
6306;SDS011;3186;54.062;9.962;2023-08-24T03:04:06;6.10;;;2.83;;
6306;SDS011;3186;54.062;9.962;2023-08-24T03:06:32;2.73;;;2.30;;
6306;SDS011;3186;54.062;9.962;2023-08-24T03:08:59;3.53;;;2.57;;
6306;SDS011;3186;54.062;9.962;2023-08-24T03:11:27;4.93;;;2.70;;
6306;SDS011;3186;54.062;9.962;2023-08-24T03:13:52;3.80;;;2.40;;
6306;SDS011;3186;54.062;9.962;2023-08-24T03:16:19;3.20;;;2.60;;
6306;SDS011;3186;54.062;9.962;2023-08-24T03:18:45;4.13;;;2.90;;
6306;SDS011;3186;54.062;9.962;2023-08-24T03:21:11;2.53;;;2.30;;
6306;SDS011;3186;54.062;9.962;2023-08-24T03:23:37;5.53;;;2.70;;
6306;SDS011;3186;54.062;9.962;2023-08-24T03:26:02;2.47;;;2.27;;
6306;SDS011;3186;54.062;9.962;2023-08-24T03:28:28;5.87;;;2.60;;
6306;SDS011;3186;54.062;9.962;2023-08-24T03:30:54;3.67;;;2.33;;
6306;SDS011;3186;54.062;9.962;2023-08-24T03:33:21;5.17;;;2.50;;
6306;SDS011;3186;54.062;9.962;2023-08-24T03:35:47;2.90;;;2.43;;
6306;SDS011;3186;54.062;9.962;2023-08-24T03:38:13;3.57;;;2.40;;
6306;SDS011;3186;54.062;9.962;2023-08-24T03:40:39;3.13;;;2.47;;
6306;SDS011;3186;54.062;9.962;2023-08-24T03:43:04;4.13;;;2.30;;
6306;SDS011;3186;54.062;9.962;2023-08-24T03:45:30;6.90;;;2.20;;
6306;SDS011;3186;54.062;9.962;2023-08-24T03:47:56;6.00;;;2.63;;
6306;SDS011;3186;54.062;9.962;2023-08-24T03:50:22;2.90;;;2.30;;
6306;SDS011;3186;54.062;9.962;2023-08-24T03:52:50;3.50;;;2.07;;
6306;SDS011;3186;54.062;9.962;2023-08-24T03:55:16;6.77;;;2.70;;
6306;SDS011;3186;54.062;9.962;2023-08-24T03:57:42;2.77;;;2.50;;
6306;SDS011;3186;54.062;9.962;2023-08-24T04:00:08;4.20;;;2.70;;
6306;SDS011;3186;54.062;9.962;2023-08-24T04:02:39;4.20;;;2.50;;
6306;SDS011;3186;54.062;9.962;2023-08-24T04:05:15;4.67;;;2.50;;
6306;SDS011;3186;54.062;9.962;2023-08-24T04:07:41;2.73;;;2.50;;
6306;SDS011;3186;54.062;9.962;2023-08-24T04:10:07;5.50;;;2.77;;
6306;SDS011;3186;54.062;9.962;2023-08-24T04:12:34;3.83;;;2.67;;
6306;SDS011;3186;54.062;9.962;2023-08-24T04:15:00;4.90;;;2.93;;
6306;SDS011;3186;54.062;9.962;2023-08-24T04:17:26;4.50;;;3.10;;
6306;SDS011;3186;54.062;9.962;2023-08-24T04:19:51;2.63;;;2.40;;
6306;SDS011;3186;54.062;9.962;2023-08-24T04:22:18;4.40;;;2.43;;
6306;SDS011;3186;54.062;9.962;2023-08-24T04:24:44;5.17;;;2.73;;
6306;SDS011;3186;54.062;9.962;2023-08-24T04:27:10;5.70;;;2.70;;
6306;SDS011;3186;54.062;9.962;2023-08-24T04:29:35;4.00;;;2.47;;
6306;SDS011;3186;54.062;9.962;2023-08-24T04:32:01;5.17;;;2.60;;
6306;SDS011;3186;54.062;9.962;2023-08-24T04:34:27;4.30;;;2.40;;
6306;SDS011;3186;54.062;9.962;2023-08-24T04:36:53;5.73;;;2.70;;
6306;SDS011;3186;54.062;9.962;2023-08-24T04:39:19;5.73;;;2.37;;
6306;SDS011;3186;54.062;9.962;2023-08-24T04:41:45;4.63;;;2.70;;
6306;SDS011;3186;54.062;9.962;2023-08-24T04:44:11;6.33;;;2.83;;
6306;SDS011;3186;54.062;9.962;2023-08-24T04:46:36;4.47;;;2.80;;
6306;SDS011;3186;54.062;9.962;2023-08-24T04:49:02;4.80;;;2.93;;
6306;SDS011;3186;54.062;9.962;2023-08-24T04:51:28;4.47;;;2.83;;
6306;SDS011;3186;54.062;9.962;2023-08-24T04:53:54;5.37;;;2.53;;
6306;SDS011;3186;54.062;9.962;2023-08-24T04:56:19;4.53;;;3.00;;
6306;SDS011;3186;54.062;9.962;2023-08-24T04:58:52;4.17;;;3.27;;
6306;SDS011;3186;54.062;9.962;2023-08-24T05:01:25;4.97;;;3.00;;
6306;SDS011;3186;54.062;9.962;2023-08-24T05:03:51;4.30;;;3.30;;
6306;SDS011;3186;54.062;9.962;2023-08-24T05:06:18;5.03;;;3.30;;
6306;SDS011;3186;54.062;9.962;2023-08-24T05:08:46;4.23;;;2.63;;
6306;SDS011;3186;54.062;9.962;2023-08-24T05:11:13;4.17;;;2.83;;
6306;SDS011;3186;54.062;9.962;2023-08-24T05:13:41;4.63;;;3.10;;
6306;SDS011;3186;54.062;9.962;2023-08-24T05:16:07;4.70;;;3.10;;
6306;SDS011;3186;54.062;9.962;2023-08-24T05:18:34;4.73;;;2.60;;
6306;SDS011;3186;54.062;9.962;2023-08-24T05:21:03;9.10;;;4.40;;
6306;SDS011;3186;54.062;9.962;2023-08-24T05:23:29;6.47;;;4.17;;
6306;SDS011;3186;54.062;9.962;2023-08-24T05:25:56;8.67;;;3.97;;
6306;SDS011;3186;54.062;9.962;2023-08-24T05:28:23;4.07;;;3.67;;
6306;SDS011;3186;54.062;9.962;2023-08-24T05:30:50;7.07;;;4.00;;
6306;SDS011;3186;54.062;9.962;2023-08-24T05:33:23;4.83;;;3.60;;
6306;SDS011;3186;54.062;9.962;2023-08-24T05:35:56;5.40;;;3.40;;
6306;SDS011;3186;54.062;9.962;2023-08-24T05:38:33;5.03;;;3.40;;
6306;SDS011;3186;54.062;9.962;2023-08-24T05:41:04;3.87;;;3.10;;
6306;SDS011;3186;54.062;9.962;2023-08-24T05:43:49;3.50;;;3.20;;
6306;SDS011;3186;54.062;9.962;2023-08-24T05:50:55;5.50;;;2.63;;
6306;SDS011;3186;54.062;9.962;2023-08-24T05:54:05;3.90;;;3.23;;
6306;SDS011;3186;54.062;9.962;2023-08-24T05:57:06;4.57;;;3.00;;
6306;SDS011;3186;54.062;9.962;2023-08-24T05:59:33;5.17;;;3.10;;
6306;SDS011;3186;54.062;9.962;2023-08-24T06:01:59;2.73;;;2.53;;
6306;SDS011;3186;54.062;9.962;2023-08-24T06:04:24;2.47;;;2.27;;
6306;SDS011;3186;54.062;9.962;2023-08-24T06:06:50;4.90;;;2.80;;
6306;SDS011;3186;54.062;9.962;2023-08-24T06:09:17;3.87;;;2.73;;
6306;SDS011;3186;54.062;9.962;2023-08-24T06:11:43;2.73;;;2.53;;
6306;SDS011;3186;54.062;9.962;2023-08-24T06:14:09;2.60;;;2.40;;
6306;SDS011;3186;54.062;9.962;2023-08-24T06:16:34;3.60;;;3.30;;
6306;SDS011;3186;54.062;9.962;2023-08-24T06:19:00;3.17;;;2.30;;
6306;SDS011;3186;54.062;9.962;2023-08-24T06:21:26;3.00;;;2.70;;
6306;SDS011;3186;54.062;9.962;2023-08-24T06:23:52;3.13;;;2.83;;
6306;SDS011;3186;54.062;9.962;2023-08-24T06:26:18;2.33;;;2.13;;
6306;SDS011;3186;54.062;9.962;2023-08-24T06:28:43;2.40;;;2.20;;
6306;SDS011;3186;54.062;9.962;2023-08-24T06:31:09;2.30;;;1.90;;
6306;SDS011;3186;54.062;9.962;2023-08-24T06:33:35;3.20;;;2.03;;
6306;SDS011;3186;54.062;9.962;2023-08-24T06:36:03;2.33;;;2.10;;
6306;SDS011;3186;54.062;9.962;2023-08-24T06:38:37;2.00;;;1.80;;
6306;SDS011;3186;54.062;9.962;2023-08-24T06:41:03;1.80;;;1.70;;
6306;SDS011;3186;54.062;9.962;2023-08-24T06:43:29;3.87;;;2.90;;
6306;SDS011;3186;54.062;9.962;2023-08-24T06:45:54;4.90;;;1.70;;
6306;SDS011;3186;54.062;9.962;2023-08-24T06:48:21;2.40;;;1.83;;
6306;SDS011;3186;54.062;9.962;2023-08-24T06:50:47;2.37;;;1.90;;
6306;SDS011;3186;54.062;9.962;2023-08-24T06:53:13;6.17;;;2.40;;
6306;SDS011;3186;54.062;9.962;2023-08-24T06:55:41;3.93;;;2.23;;
6306;SDS011;3186;54.062;9.962;2023-08-24T06:58:07;2.97;;;2.13;;
6306;SDS011;3186;54.062;9.962;2023-08-24T07:00:33;3.30;;;1.77;;
6306;SDS011;3186;54.062;9.962;2023-08-24T07:03:00;2.77;;;1.50;;
6306;SDS011;3186;54.062;9.962;2023-08-24T07:05:26;3.33;;;1.33;;
6306;SDS011;3186;54.062;9.962;2023-08-24T07:07:52;2.50;;;1.57;;
6306;SDS011;3186;54.062;9.962;2023-08-24T07:10:21;5.13;;;2.13;;
6306;SDS011;3186;54.062;9.962;2023-08-24T07:12:47;3.07;;;1.60;;
6306;SDS011;3186;54.062;9.962;2023-08-24T07:15:13;2.83;;;1.80;;
6306;SDS011;3186;54.062;9.962;2023-08-24T07:17:39;4.50;;;1.47;;
6306;SDS011;3186;54.062;9.962;2023-08-24T07:20:05;3.83;;;1.90;;
6306;SDS011;3186;54.062;9.962;2023-08-24T07:22:33;4.07;;;1.50;;
6306;SDS011;3186;54.062;9.962;2023-08-24T07:25:00;7.07;;;1.90;;
6306;SDS011;3186;54.062;9.962;2023-08-24T07:27:26;3.40;;;1.80;;
6306;SDS011;3186;54.062;9.962;2023-08-24T07:29:53;2.97;;;1.67;;
6306;SDS011;3186;54.062;9.962;2023-08-24T07:32:19;5.00;;;2.00;;
6306;SDS011;3186;54.062;9.962;2023-08-24T07:34:45;5.87;;;1.77;;
6306;SDS011;3186;54.062;9.962;2023-08-24T07:37:11;5.03;;;1.90;;
6306;SDS011;3186;54.062;9.962;2023-08-24T07:39:37;5.33;;;1.70;;
6306;SDS011;3186;54.062;9.962;2023-08-24T07:42:03;6.50;;;2.10;;
6306;SDS011;3186;54.062;9.962;2023-08-24T07:44:29;5.30;;;2.40;;
6306;SDS011;3186;54.062;9.962;2023-08-24T07:46:55;6.00;;;2.27;;
6306;SDS011;3186;54.062;9.962;2023-08-24T07:49:21;6.83;;;1.90;;
6306;SDS011;3186;54.062;9.962;2023-08-24T07:51:47;4.93;;;1.97;;
6306;SDS011;3186;54.062;9.962;2023-08-24T07:54:13;2.83;;;1.83;;
6306;SDS011;3186;54.062;9.962;2023-08-24T07:56:39;3.67;;;2.17;;
6306;SDS011;3186;54.062;9.962;2023-08-24T07:59:05;2.33;;;1.70;;
6306;SDS011;3186;54.062;9.962;2023-08-24T08:01:32;6.03;;;1.90;;
6306;SDS011;3186;54.062;9.962;2023-08-24T08:03:58;5.03;;;1.90;;
6306;SDS011;3186;54.062;9.962;2023-08-24T08:06:25;4.43;;;1.90;;
6306;SDS011;3186;54.062;9.962;2023-08-24T08:08:52;3.77;;;1.97;;
6306;SDS011;3186;54.062;9.962;2023-08-24T08:11:18;5.03;;;2.10;;
6306;SDS011;3186;54.062;9.962;2023-08-24T08:13:44;6.00;;;2.13;;
6306;SDS011;3186;54.062;9.962;2023-08-24T08:16:10;6.03;;;1.63;;
6306;SDS011;3186;54.062;9.962;2023-08-24T08:18:38;5.30;;;1.80;;
6306;SDS011;3186;54.062;9.962;2023-08-24T08:21:10;5.27;;;1.97;;
6306;SDS011;3186;54.062;9.962;2023-08-24T08:23:40;5.20;;;1.93;;
6306;SDS011;3186;54.062;9.962;2023-08-24T08:26:07;3.40;;;1.70;;
6306;SDS011;3186;54.062;9.962;2023-08-24T08:28:35;7.57;;;2.20;;
6306;SDS011;3186;54.062;9.962;2023-08-24T08:31:01;6.90;;;1.90;;
6306;SDS011;3186;54.062;9.962;2023-08-24T08:33:28;4.90;;;1.70;;
6306;SDS011;3186;54.062;9.962;2023-08-24T08:35:55;3.43;;;1.73;;
6306;SDS011;3186;54.062;9.962;2023-08-24T08:40:49;5.40;;;1.63;;
6306;SDS011;3186;54.062;9.962;2023-08-24T08:43:15;2.03;;;1.47;;
6306;SDS011;3186;54.062;9.962;2023-08-24T08:45:41;4.23;;;1.47;;
6306;SDS011;3186;54.062;9.962;2023-08-24T08:48:07;6.93;;;2.80;;
6306;SDS011;3186;54.062;9.962;2023-08-24T08:50:34;1.93;;;1.53;;
6306;SDS011;3186;54.062;9.962;2023-08-24T08:53:00;4.20;;;1.53;;
6306;SDS011;3186;54.062;9.962;2023-08-24T08:55:26;4.93;;;1.50;;
6306;SDS011;3186;54.062;9.962;2023-08-24T08:57:55;4.60;;;1.60;;
6306;SDS011;3186;54.062;9.962;2023-08-24T09:00:26;2.93;;;1.77;;
6306;SDS011;3186;54.062;9.962;2023-08-24T09:02:53;2.37;;;1.37;;
6306;SDS011;3186;54.062;9.962;2023-08-24T09:05:21;4.77;;;1.83;;
6306;SDS011;3186;54.062;9.962;2023-08-24T09:07:48;3.80;;;1.47;;
6306;SDS011;3186;54.062;9.962;2023-08-24T09:10:14;3.37;;;1.40;;
6306;SDS011;3186;54.062;9.962;2023-08-24T09:12:40;2.47;;;1.53;;
6306;SDS011;3186;54.062;9.962;2023-08-24T09:15:06;2.23;;;1.57;;
6306;SDS011;3186;54.062;9.962;2023-08-24T09:17:33;3.40;;;1.30;;
6306;SDS011;3186;54.062;9.962;2023-08-24T09:19:59;5.83;;;1.73;;
6306;SDS011;3186;54.062;9.962;2023-08-24T09:22:35;4.93;;;1.63;;
6306;SDS011;3186;54.062;9.962;2023-08-24T09:25:03;3.83;;;1.20;;
6306;SDS011;3186;54.062;9.962;2023-08-24T09:27:31;5.33;;;1.60;;
6306;SDS011;3186;54.062;9.962;2023-08-24T09:29:57;2.80;;;1.30;;
6306;SDS011;3186;54.062;9.962;2023-08-24T09:32:30;1.90;;;1.13;;
6306;SDS011;3186;54.062;9.962;2023-08-24T09:35:03;3.60;;;1.47;;
6306;SDS011;3186;54.062;9.962;2023-08-24T09:37:33;1.93;;;1.47;;
6306;SDS011;3186;54.062;9.962;2023-08-24T09:40:06;1.97;;;1.40;;
6306;SDS011;3186;54.062;9.962;2023-08-24T09:42:40;3.93;;;1.73;;
6306;SDS011;3186;54.062;9.962;2023-08-24T09:45:07;2.97;;;1.47;;
6306;SDS011;3186;54.062;9.962;2023-08-24T09:47:36;3.50;;;1.40;;
6306;SDS011;3186;54.062;9.962;2023-08-24T09:50:02;3.50;;;1.47;;
6306;SDS011;3186;54.062;9.962;2023-08-24T09:52:31;2.80;;;1.20;;
6306;SDS011;3186;54.062;9.962;2023-08-24T09:55:04;2.80;;;1.20;;
6306;SDS011;3186;54.062;9.962;2023-08-24T09:57:37;2.57;;;1.40;;
6306;SDS011;3186;54.062;9.962;2023-08-24T10:00:08;3.47;;;1.27;;
6306;SDS011;3186;54.062;9.962;2023-08-24T10:02:49;4.13;;;1.57;;
6306;SDS011;3186;54.062;9.962;2023-08-24T10:05:18;5.90;;;1.27;;
6306;SDS011;3186;54.062;9.962;2023-08-24T10:07:55;4.13;;;1.80;;
6306;SDS011;3186;54.062;9.962;2023-08-24T10:10:22;7.03;;;2.03;;
6306;SDS011;3186;54.062;9.962;2023-08-24T10:12:51;2.23;;;1.20;;
6306;SDS011;3186;54.062;9.962;2023-08-24T10:15:23;2.27;;;1.30;;
6306;SDS011;3186;54.062;9.962;2023-08-24T10:17:49;3.00;;;1.33;;
6306;SDS011;3186;54.062;9.962;2023-08-24T10:20:18;3.17;;;1.47;;
6306;SDS011;3186;54.062;9.962;2023-08-24T10:22:47;3.07;;;1.20;;
6306;SDS011;3186;54.062;9.962;2023-08-24T10:25:14;2.83;;;1.10;;
6306;SDS011;3186;54.062;9.962;2023-08-24T10:27:42;2.00;;;1.30;;
6306;SDS011;3186;54.062;9.962;2023-08-24T10:30:12;1.87;;;1.40;;
6306;SDS011;3186;54.062;9.962;2023-08-24T10:32:42;2.73;;;1.40;;
6306;SDS011;3186;54.062;9.962;2023-08-24T10:35:10;2.00;;;1.73;;
6306;SDS011;3186;54.062;9.962;2023-08-24T10:37:37;2.00;;;1.70;;
6306;SDS011;3186;54.062;9.962;2023-08-24T10:40:03;1.83;;;1.50;;
6306;SDS011;3186;54.062;9.962;2023-08-24T10:42:42;2.73;;;1.50;;
6306;SDS011;3186;54.062;9.962;2023-08-24T10:45:11;1.50;;;0.93;;
6306;SDS011;3186;54.062;9.962;2023-08-24T10:47:45;1.70;;;1.57;;
6306;SDS011;3186;54.062;9.962;2023-08-24T10:50:12;5.17;;;1.63;;
6306;SDS011;3186;54.062;9.962;2023-08-24T10:52:39;2.80;;;1.27;;
6306;SDS011;3186;54.062;9.962;2023-08-24T10:55:25;2.63;;;1.20;;
6306;SDS011;3186;54.062;9.962;2023-08-24T10:57:59;2.10;;;1.30;;
6306;SDS011;3186;54.062;9.962;2023-08-24T11:00:34;3.57;;;1.50;;
6306;SDS011;3186;54.062;9.962;2023-08-24T11:03:00;3.43;;;1.40;;
6306;SDS011;3186;54.062;9.962;2023-08-24T11:05:29;2.33;;;1.50;;
6306;SDS011;3186;54.062;9.962;2023-08-24T11:08:04;3.57;;;1.37;;
6306;SDS011;3186;54.062;9.962;2023-08-24T11:10:44;2.43;;;1.23;;
6306;SDS011;3186;54.062;9.962;2023-08-24T11:13:15;1.53;;;1.13;;
6306;SDS011;3186;54.062;9.962;2023-08-24T11:15:45;1.93;;;1.10;;
6306;SDS011;3186;54.062;9.962;2023-08-24T11:20:45;1.77;;;1.20;;
6306;SDS011;3186;54.062;9.962;2023-08-24T11:23:15;1.83;;;1.27;;
6306;SDS011;3186;54.062;9.962;2023-08-24T11:25:41;1.70;;;1.20;;
6306;SDS011;3186;54.062;9.962;2023-08-24T11:28:07;1.43;;;1.10;;
6306;SDS011;3186;54.062;9.962;2023-08-24T11:30:34;3.60;;;1.20;;
6306;SDS011;3186;54.062;9.962;2023-08-24T11:33:00;1.20;;;0.90;;
6306;SDS011;3186;54.062;9.962;2023-08-24T11:35:28;3.00;;;1.30;;
6306;SDS011;3186;54.062;9.962;2023-08-24T11:37:54;1.67;;;1.23;;
6306;SDS011;3186;54.062;9.962;2023-08-24T11:40:21;2.67;;;1.30;;
6306;SDS011;3186;54.062;9.962;2023-08-24T11:42:54;2.73;;;1.20;;
6306;SDS011;3186;54.062;9.962;2023-08-24T11:45:20;2.33;;;1.30;;
6306;SDS011;3186;54.062;9.962;2023-08-24T11:47:47;1.13;;;0.93;;
6306;SDS011;3186;54.062;9.962;2023-08-24T11:50:14;2.00;;;1.40;;
6306;SDS011;3186;54.062;9.962;2023-08-24T11:52:40;1.40;;;1.10;;
6306;SDS011;3186;54.062;9.962;2023-08-24T11:55:06;2.07;;;1.30;;
6306;SDS011;3186;54.062;9.962;2023-08-24T11:57:36;2.03;;;1.10;;
6306;SDS011;3186;54.062;9.962;2023-08-24T12:00:03;1.93;;;1.20;;
6306;SDS011;3186;54.062;9.962;2023-08-24T12:02:33;1.53;;;1.30;;
6306;SDS011;3186;54.062;9.962;2023-08-24T12:05:00;2.20;;;1.30;;
6306;SDS011;3186;54.062;9.962;2023-08-24T12:07:30;2.80;;;1.10;;
6306;SDS011;3186;54.062;9.962;2023-08-24T12:09:59;1.33;;;0.83;;
6306;SDS011;3186;54.062;9.962;2023-08-24T12:12:26;1.93;;;1.30;;
6306;SDS011;3186;54.062;9.962;2023-08-24T12:14:54;1.93;;;1.13;;
6306;SDS011;3186;54.062;9.962;2023-08-24T12:17:23;1.40;;;1.30;;
6306;SDS011;3186;54.062;9.962;2023-08-24T12:19:58;1.73;;;1.23;;
6306;SDS011;3186;54.062;9.962;2023-08-24T12:22:25;1.63;;;1.23;;
6306;SDS011;3186;54.062;9.962;2023-08-24T12:24:51;2.60;;;1.33;;
6306;SDS011;3186;54.062;9.962;2023-08-24T12:27:20;1.33;;;0.90;;
6306;SDS011;3186;54.062;9.962;2023-08-24T12:29:51;2.73;;;1.10;;
6306;SDS011;3186;54.062;9.962;2023-08-24T12:32:17;2.40;;;0.97;;
6306;SDS011;3186;54.062;9.962;2023-08-24T12:34:50;3.13;;;1.40;;
6306;SDS011;3186;54.062;9.962;2023-08-24T12:37:19;2.23;;;1.30;;
6306;SDS011;3186;54.062;9.962;2023-08-24T12:39:45;2.00;;;1.30;;
6306;SDS011;3186;54.062;9.962;2023-08-24T12:42:11;2.77;;;1.40;;
6306;SDS011;3186;54.062;9.962;2023-08-24T12:44:37;1.83;;;1.27;;
6306;SDS011;3186;54.062;9.962;2023-08-24T12:47:03;2.57;;;0.80;;
6306;SDS011;3186;54.062;9.962;2023-08-24T12:49:29;3.63;;;1.20;;
6306;SDS011;3186;54.062;9.962;2023-08-24T12:51:54;6.83;;;1.27;;
6306;SDS011;3186;54.062;9.962;2023-08-24T12:54:20;1.70;;;1.30;;
6306;SDS011;3186;54.062;9.962;2023-08-24T12:56:46;1.33;;;1.23;;
6306;SDS011;3186;54.062;9.962;2023-08-24T12:59:12;1.63;;;1.20;;
6306;SDS011;3186;54.062;9.962;2023-08-24T13:01:38;1.17;;;1.07;;
6306;SDS011;3186;54.062;9.962;2023-08-24T13:04:04;1.97;;;1.30;;
6306;SDS011;3186;54.062;9.962;2023-08-24T13:06:30;3.57;;;1.47;;
6306;SDS011;3186;54.062;9.962;2023-08-24T13:08:56;1.20;;;1.10;;
6306;SDS011;3186;54.062;9.962;2023-08-24T13:11:22;1.93;;;1.20;;
6306;SDS011;3186;54.062;9.962;2023-08-24T13:13:48;1.43;;;1.10;;
6306;SDS011;3186;54.062;9.962;2023-08-24T13:16:14;3.07;;;1.27;;
6306;SDS011;3186;54.062;9.962;2023-08-24T13:18:41;4.13;;;1.40;;
6306;SDS011;3186;54.062;9.962;2023-08-24T13:21:07;1.80;;;1.30;;
6306;SDS011;3186;54.062;9.962;2023-08-24T13:23:33;3.13;;;1.20;;
6306;SDS011;3186;54.062;9.962;2023-08-24T13:25:59;1.63;;;1.20;;
6306;SDS011;3186;54.062;9.962;2023-08-24T13:28:25;1.40;;;1.30;;
6306;SDS011;3186;54.062;9.962;2023-08-24T13:30:51;2.47;;;1.60;;
6306;SDS011;3186;54.062;9.962;2023-08-24T13:33:17;2.53;;;1.40;;
6306;SDS011;3186;54.062;9.962;2023-08-24T13:35:46;2.83;;;1.43;;
6306;SDS011;3186;54.062;9.962;2023-08-24T13:38:11;1.53;;;1.37;;
6306;SDS011;3186;54.062;9.962;2023-08-24T13:40:37;2.20;;;1.27;;
6306;SDS011;3186;54.062;9.962;2023-08-24T13:43:03;2.10;;;1.50;;
6306;SDS011;3186;54.062;9.962;2023-08-24T13:45:29;1.90;;;1.23;;
6306;SDS011;3186;54.062;9.962;2023-08-24T13:47:56;2.90;;;1.40;;
6306;SDS011;3186;54.062;9.962;2023-08-24T13:50:22;1.53;;;1.27;;
6306;SDS011;3186;54.062;9.962;2023-08-24T13:52:49;2.33;;;1.10;;
6306;SDS011;3186;54.062;9.962;2023-08-24T13:55:15;2.50;;;1.53;;
6306;SDS011;3186;54.062;9.962;2023-08-24T13:57:44;1.83;;;1.40;;
6306;SDS011;3186;54.062;9.962;2023-08-24T14:00:10;1.97;;;1.30;;
6306;SDS011;3186;54.062;9.962;2023-08-24T14:02:39;1.73;;;1.10;;
6306;SDS011;3186;54.062;9.962;2023-08-24T14:05:05;1.77;;;1.20;;
6306;SDS011;3186;54.062;9.962;2023-08-24T14:07:34;1.40;;;1.20;;
6306;SDS011;3186;54.062;9.962;2023-08-24T14:10:01;1.77;;;1.67;;
6306;SDS011;3186;54.062;9.962;2023-08-24T14:12:27;1.50;;;1.40;;
6306;SDS011;3186;54.062;9.962;2023-08-24T14:14:52;3.40;;;1.40;;
6306;SDS011;3186;54.062;9.962;2023-08-24T14:17:18;1.57;;;1.33;;
6306;SDS011;3186;54.062;9.962;2023-08-24T14:19:44;2.13;;;1.40;;
6306;SDS011;3186;54.062;9.962;2023-08-24T14:22:10;1.50;;;1.40;;
6306;SDS011;3186;54.062;9.962;2023-08-24T14:24:36;1.50;;;1.40;;
6306;SDS011;3186;54.062;9.962;2023-08-24T14:27:02;2.47;;;1.33;;
6306;SDS011;3186;54.062;9.962;2023-08-24T14:29:27;1.70;;;1.40;;
6306;SDS011;3186;54.062;9.962;2023-08-24T14:31:53;2.77;;;1.43;;
6306;SDS011;3186;54.062;9.962;2023-08-24T14:34:19;3.53;;;1.50;;
6306;SDS011;3186;54.062;9.962;2023-08-24T14:36:45;3.20;;;1.67;;
6306;SDS011;3186;54.062;9.962;2023-08-24T14:39:11;1.90;;;1.67;;
6306;SDS011;3186;54.062;9.962;2023-08-24T14:41:36;3.73;;;1.90;;
6306;SDS011;3186;54.062;9.962;2023-08-24T14:44:02;2.43;;;1.73;;
6306;SDS011;3186;54.062;9.962;2023-08-24T14:46:28;2.40;;;1.90;;
6306;SDS011;3186;54.062;9.962;2023-08-24T14:48:54;1.50;;;1.40;;
6306;SDS011;3186;54.062;9.962;2023-08-24T14:51:20;3.00;;;1.57;;
6306;SDS011;3186;54.062;9.962;2023-08-24T14:53:46;2.93;;;1.53;;
6306;SDS011;3186;54.062;9.962;2023-08-24T14:56:11;2.90;;;1.80;;
6306;SDS011;3186;54.062;9.962;2023-08-24T14:58:37;2.10;;;1.60;;
6306;SDS011;3186;54.062;9.962;2023-08-24T15:01:03;1.83;;;1.50;;
6306;SDS011;3186;54.062;9.962;2023-08-24T15:03:30;1.90;;;1.43;;
6306;SDS011;3186;54.062;9.962;2023-08-24T15:06:00;3.90;;;1.63;;
6306;SDS011;3186;54.062;9.962;2023-08-24T15:08:27;2.20;;;1.70;;
6306;SDS011;3186;54.062;9.962;2023-08-24T15:10:54;3.07;;;1.50;;
6306;SDS011;3186;54.062;9.962;2023-08-24T15:13:21;1.60;;;1.50;;
6306;SDS011;3186;54.062;9.962;2023-08-24T15:15:48;2.07;;;1.67;;
6306;SDS011;3186;54.062;9.962;2023-08-24T15:18:14;2.30;;;1.70;;
6306;SDS011;3186;54.062;9.962;2023-08-24T15:20:40;4.30;;;1.67;;
6306;SDS011;3186;54.062;9.962;2023-08-24T15:23:06;3.10;;;1.90;;
6306;SDS011;3186;54.062;9.962;2023-08-24T15:25:32;2.37;;;1.77;;
6306;SDS011;3186;54.062;9.962;2023-08-24T15:27:58;4.53;;;2.03;;
6306;SDS011;3186;54.062;9.962;2023-08-24T15:30:24;3.83;;;2.20;;